Aeroporto :
LOGIN :

Iscrizione | Disclaimer

   EN    FR    IT 

 










Sommario :    VFR   VFR Marginale   IFR   IFR Intensivo   IFR Molto Intensivo
Visibilità : 
Base nubi : 
>= 8 km
>= 3000ft
5 / 8 km
1000 / 3000 ft
1500m / 5 km
500 / 1000 ft
800 / 1500m
200 / 500 ft
< 800m
< 200 ft
Simboli :   Temporali  Nebbia  Neve Forte  Precipitazioni Forti  Vento > 20 kt
SIGMETs :   Varie  Temporali  Ghiacco  Turbolenza  Onda orograficha  Ceneri Vulcaniche






- Altitudine del aeroporto : 231 ft
- Codice IATA : WTN


EGXW - RAF Waddington

ULTIMO METAR :
  • 140650Z AUTO 25014G24KT 9999 NCD 04/00 Q0982

METARs OBSOLETI :
  • 140550Z AUTO 25013KT 9999 SCT030/// SCT039/// 04/01 Q0981
  • 140450Z AUTO 24008KT 9999 FEW018/// 04/02 Q0981 RERA

TAF TAF EGXW
Valido dal 13 a 15 ore il 14 a 09 ore UTC


131349Z 1315/1409 25014KT 9999 SCT025
TEMPO 1315/1322 25017G27KT BKN022
PROB30
TEMPO 1316/1320 7000 RA
PROB40
TEMPO 1322/1406 25015G25KT
PROB30
TEMPO 1402/1406 7000 -SHRA BKN018
TEMPO 1406/1409 24018G28KT



MetMap, La meteo Aeronautica in un colpo d'occhio ! - Copyright ORBIFLY Dicembre 2007 - Disclaimer

ORBIFLY MET'MAP TEAM :

Programmazione e sviluppo : Alexandra Zaïnal
Concezione : Baudouin d'Aumeries
Aiuto per la programmazione : Marc-Olivier Méhu
Supporto tecnico e logistico : Manuel Goepfert
Aiuto per la traduzione : Arnaldo La Scala

Contatto : metmap@orbifly.com




FONTI E CREDITI :

   NOAA